Time;durP1;ratioP1;P1;durP2;ratioP2;P2;SDS_P1;SDS_P2;PMS_P1;PMS_P2;Temp;Humidity;BMP_temperature;BMP_pressure;BME280_temperature;BME280_humidity;BME280_pressure;Samples;Min_cycle;Max_cycle;Signal;HPM_P1;HPM_P2
2024/03/02 00:01:10;;;;;;;1.37;1.27;;;5.70;99.90;;;;;;5012748;28;20749;-63
2024/03/02 00:03:39;;;;;;;1.67;1.57;;;5.80;99.90;;;;;;5018636;28;20214;-64
2024/03/02 00:06:08;;;;;;;2.43;1.43;;;5.80;99.90;;;;;;5019727;28;20218;-63
2024/03/02 00:08:36;;;;;;;1.47;1.47;;;5.80;99.90;;;;;;5019101;28;20807;-62
2024/03/02 00:11:06;;;;;;;2.70;1.50;;;5.80;99.90;;;;;;5017975;28;20222;-63
2024/03/02 00:13:35;;;;;;;1.77;1.63;;;5.70;99.90;;;;;;5017162;28;20807;-63
2024/03/02 00:16:06;;;;;;;3.60;1.40;;;5.80;99.90;;;;;;5019163;28;20245;-62
2024/03/02 00:18:36;;;;;;;3.23;1.30;;;5.80;99.90;;;;;;5013249;28;20253;-63
2024/03/02 00:21:10;;;;;;;1.73;1.63;;;5.80;99.90;;;;;;5013685;28;20240;-63
2024/03/02 00:23:39;;;;;;;2.03;1.30;;;5.80;99.90;;;;;;5014000;28;20576;-62
2024/03/02 00:26:13;;;;;;;1.40;1.30;;;5.70;99.90;;;;;;5019596;28;20182;-63
2024/03/02 00:28:43;;;;;;;1.50;1.50;;;5.70;99.90;;;;;;5017967;28;20213;-63
2024/03/02 00:31:13;;;;;;;1.70;1.60;;;5.70;99.90;;;;;;5021958;28;20213;-62
2024/03/02 00:33:43;;;;;;;1.60;1.50;;;5.70;99.90;;;;;;5011970;28;20237;-63
2024/03/02 00:36:14;;;;;;;1.83;1.73;;;5.70;99.90;;;;;;5012154;28;20661;-63
2024/03/02 00:38:47;;;;;;;1.50;1.40;;;5.70;99.90;;;;;;5019795;28;20245;-63
2024/03/02 00:41:23;;;;;;;1.63;1.50;;;5.70;99.90;;;;;;5017074;28;20194;-63
2024/03/02 00:44:01;;;;;;;1.80;1.47;;;5.70;99.90;;;;;;5020680;28;20300;-63
2024/03/02 00:46:31;;;;;;;1.70;1.60;;;5.70;99.90;;;;;;5017502;28;20272;-62
2024/03/02 00:49:01;;;;;;;4.00;1.53;;;5.70;99.90;;;;;;5018608;28;20224;-62
2024/03/02 00:51:32;;;;;;;3.17;1.50;;;5.70;99.90;;;;;;5015387;28;20217;-62
2024/03/02 00:54:03;;;;;;;1.53;1.53;;;5.70;99.90;;;;;;5019523;28;20229;-62
2024/03/02 00:56:34;;;;;;;1.70;1.60;;;5.70;99.90;;;;;;5015723;28;20224;-62
2024/03/02 00:59:03;;;;;;;1.47;1.47;;;5.80;99.90;;;;;;5018127;28;20300;-62
2024/03/02 01:01:31;;;;;;;1.67;1.50;;;5.70;99.90;;;;;;5020030;28;20336;-63
2024/03/02 01:04:00;;;;;;;1.70;1.47;;;5.70;99.90;;;;;;5017923;28;20225;-63
2024/03/02 01:06:28;;;;;;;2.23;1.70;;;5.70;99.90;;;;;;5015458;28;20218;-63
2024/03/02 01:08:56;;;;;;;2.00;1.50;;;5.60;99.90;;;;;;5020790;28;20268;-63
2024/03/02 01:11:25;;;;;;;1.80;1.70;;;5.60;99.90;;;;;;5018469;28;20230;-62
2024/03/02 01:13:55;;;;;;;2.10;1.70;;;5.60;99.90;;;;;;5019284;28;20663;-62
2024/03/02 01:16:23;;;;;;;1.80;1.70;;;5.60;99.90;;;;;;5017646;28;20311;-63
2024/03/02 01:18:51;;;;;;;2.73;1.80;;;5.70;99.90;;;;;;5018620;28;20217;-62
2024/03/02 01:21:19;;;;;;;1.90;1.80;;;5.70;99.90;;;;;;5015512;28;20226;-62
2024/03/02 01:23:48;;;;;;;5.30;2.10;;;5.70;99.90;;;;;;5015337;28;20272;-62
2024/03/02 01:26:16;;;;;;;4.17;2.00;;;5.70;99.90;;;;;;4999405;28;20205;-63
2024/03/02 01:28:44;;;;;;;2.17;2.10;;;5.70;99.90;;;;;;4996986;28;20218;-62
2024/03/02 01:31:14;;;;;;;3.57;2.10;;;5.70;99.90;;;;;;4993408;28;20214;-63
2024/03/02 01:33:42;;;;;;;2.50;2.10;;;5.60;99.90;;;;;;4996715;28;20593;-63
2024/03/02 01:36:10;;;;;;;2.13;2.03;;;5.60;99.90;;;;;;5003145;28;20309;-63
2024/03/02 01:38:38;;;;;;;2.30;2.20;;;5.60;99.90;;;;;;4994934;28;20194;-63
2024/03/02 01:41:06;;;;;;;2.47;2.37;;;5.50;99.90;;;;;;5000367;28;20221;-63
2024/03/02 01:43:35;;;;;;;2.10;2.00;;;5.50;99.90;;;;;;4995157;28;20215;-63
2024/03/02 01:46:07;;;;;;;2.53;2.33;;;5.50;99.90;;;;;;4993971;28;20218;-63
2024/03/02 01:48:36;;;;;;;4.70;2.10;;;5.50;99.90;;;;;;4994314;28;20226;-63
2024/03/02 01:51:06;;;;;;;2.10;2.10;;;5.40;99.90;;;;;;4998810;28;20245;-63
2024/03/02 01:53:34;;;;;;;2.20;2.10;;;5.40;99.90;;;;;;4994332;28;20198;-62
2024/03/02 01:56:02;;;;;;;2.60;2.40;;;5.30;99.90;;;;;;4998726;28;20217;-63
2024/03/02 01:58:31;;;;;;;4.43;2.07;;;5.20;99.90;;;;;;5014087;28;20217;-63
2024/03/02 02:00:59;;;;;;;5.33;2.53;;;5.20;99.90;;;;;;5017899;28;20229;-63
2024/03/02 02:03:27;;;;;;;2.50;2.13;;;5.20;99.90;;;;;;5013316;28;20236;-62
2024/03/02 02:05:57;;;;;;;2.30;2.30;;;5.10;99.90;;;;;;5013861;28;20317;-63
2024/03/02 02:08:25;;;;;;;2.50;2.40;;;5.00;99.90;;;;;;4994064;28;20226;-62
2024/03/02 02:10:54;;;;;;;2.50;2.40;;;5.00;99.90;;;;;;4999271;28;20187;-62
2024/03/02 02:13:22;;;;;;;3.70;2.33;;;5.00;99.90;;;;;;5001348;28;20218;-63
2024/03/02 02:15:52;;;;;;;2.77;2.30;;;5.10;99.90;;;;;;4998082;28;20232;-63
2024/03/02 02:18:21;;;;;;;3.00;2.70;;;5.20;99.90;;;;;;5000905;28;20237;-63
2024/03/02 02:20:49;;;;;;;2.70;2.50;;;5.20;99.90;;;;;;4985588;28;20314;-63
2024/03/02 02:23:19;;;;;;;4.83;2.40;;;5.20;99.90;;;;;;4993677;28;20202;-63
2024/03/02 02:25:47;;;;;;;2.70;2.43;;;5.10;99.90;;;;;;4996208;28;20222;-63
2024/03/02 02:28:15;;;;;;;2.60;2.40;;;5.10;99.90;;;;;;4994387;28;20218;-63
2024/03/02 02:30:44;;;;;;;3.13;2.30;;;5.20;99.90;;;;;;5019386;28;20221;-63
2024/03/02 02:33:12;;;;;;;4.10;2.30;;;5.30;99.90;;;;;;4991711;28;20233;-63
2024/03/02 02:35:41;;;;;;;5.03;2.50;;;5.30;99.90;;;;;;4994769;28;20715;-63
2024/03/02 02:38:09;;;;;;;2.40;2.20;;;5.40;99.90;;;;;;4998659;28;20649;-63
2024/03/02 02:40:38;;;;;;;2.50;2.40;;;5.40;99.90;;;;;;4996909;28;20891;-63
2024/03/02 02:43:07;;;;;;;3.07;2.60;;;5.40;99.90;;;;;;4994959;28;20233;-62
2024/03/02 02:45:35;;;;;;;5.37;2.50;;;5.50;99.90;;;;;;4996579;28;20229;-63
2024/03/02 02:48:05;;;;;;;5.33;2.50;;;5.50;99.90;;;;;;4994254;28;20262;-62
2024/03/02 02:50:33;;;;;;;6.20;2.20;;;5.60;99.90;;;;;;4991902;28;20214;-62
2024/03/02 02:53:01;;;;;;;5.13;2.23;;;5.60;99.90;;;;;;4994324;28;20202;-63
2024/03/02 02:55:30;;;;;;;3.87;2.33;;;5.60;99.90;;;;;;4993640;28;20219;-62
2024/03/02 02:57:59;;;;;;;2.10;2.00;;;5.60;99.90;;;;;;4991791;28;20254;-63
2024/03/02 03:00:27;;;;;;;6.20;2.17;;;5.60;99.90;;;;;;4990824;28;20225;-63
2024/03/02 03:02:56;;;;;;;3.83;2.20;;;5.60;99.90;;;;;;5008454;28;20218;-63
2024/03/02 03:05:24;;;;;;;6.63;2.30;;;5.60;99.90;;;;;;4997491;28;20191;-63
2024/03/02 03:07:52;;;;;;;2.53;2.30;;;5.60;99.90;;;;;;4993467;28;20333;-63
2024/03/02 03:10:23;;;;;;;3.73;2.20;;;5.60;99.90;;;;;;4992578;28;20221;-63
2024/03/02 03:12:51;;;;;;;6.53;2.20;;;5.60;99.90;;;;;;4995272;28;20229;-63
2024/03/02 03:15:21;;;;;;;6.03;2.20;;;5.70;99.90;;;;;;4994229;28;20222;-63
2024/03/02 03:17:50;;;;;;;3.83;1.90;;;5.70;99.90;;;;;;4991452;28;20218;-63
2024/03/02 03:20:21;;;;;;;3.33;1.90;;;5.60;99.90;;;;;;4992602;28;20679;-63
2024/03/02 03:22:49;;;;;;;2.33;2.13;;;5.60;99.90;;;;;;5015328;28;20213;-64
2024/03/02 03:25:17;;;;;;;4.37;2.43;;;5.60;99.90;;;;;;5013514;28;20226;-63
2024/03/02 03:27:46;;;;;;;6.47;1.97;;;5.60;99.90;;;;;;5011997;28;20214;-62
2024/03/02 03:30:14;;;;;;;3.17;1.97;;;5.60;99.90;;;;;;5015701;28;20218;-62
2024/03/02 03:32:44;;;;;;;5.03;2.07;;;5.70;99.90;;;;;;5013015;28;20226;-62
2024/03/02 03:35:14;;;;;;;2.50;2.00;;;5.70;99.90;;;;;;5020579;28;20213;-63
2024/03/02 03:37:42;;;;;;;5.60;1.90;;;5.70;99.90;;;;;;5013911;28;20224;-63
2024/03/02 03:40:12;;;;;;;3.80;2.00;;;5.70;99.90;;;;;;5018157;28;20639;-63
2024/03/02 03:42:40;;;;;;;3.03;2.00;;;5.70;99.90;;;;;;5012186;28;20280;-63
2024/03/02 03:45:09;;;;;;;2.83;1.70;;;5.70;99.90;;;;;;5007825;28;20218;-63
2024/03/02 03:47:37;;;;;;;4.60;2.00;;;5.70;99.90;;;;;;5011265;28;20252;-63
2024/03/02 03:50:08;;;;;;;5.37;1.97;;;5.70;99.90;;;;;;5015309;28;20252;-63
2024/03/02 03:52:36;;;;;;;2.67;2.00;;;5.70;99.90;;;;;;5015906;28;20245;-62
2024/03/02 03:55:05;;;;;;;4.47;1.80;;;5.70;99.90;;;;;;5007210;28;20321;-63
2024/03/02 03:57:34;;;;;;;4.00;1.70;;;5.70;99.90;;;;;;4992673;28;20230;-62
2024/03/02 04:00:04;;;;;;;2.47;2.07;;;5.70;99.90;;;;;;4992815;28;20293;-63
2024/03/02 04:02:32;;;;;;;2.10;1.90;;;5.70;99.90;;;;;;4993061;28;20199;-63
2024/03/02 04:05:00;;;;;;;6.80;2.37;;;5.70;99.90;;;;;;4993463;28;20209;-62
2024/03/02 04:07:30;;;;;;;5.70;2.40;;;5.70;99.90;;;;;;4990702;28;20226;-63
2024/03/02 04:09:57;;;;;;;4.67;1.97;;;5.70;99.90;;;;;;4995268;28;20218;-63
2024/03/02 04:12:25;;;;;;;2.20;2.00;;;5.70;99.90;;;;;;4996459;28;20226;-63
2024/03/02 04:14:54;;;;;;;5.07;1.87;;;5.80;99.90;;;;;;4994317;28;20883;-63
2024/03/02 04:17:22;;;;;;;6.23;2.60;;;5.70;99.90;;;;;;4995854;28;20193;-63
2024/03/02 04:19:51;;;;;;;7.77;2.23;;;5.80;99.90;;;;;;4993784;28;20199;-63
2024/03/02 04:22:20;;;;;;;2.23;2.07;;;5.80;99.90;;;;;;4990041;28;20222;-63
2024/03/02 04:24:54;;;;;;;2.10;2.00;;;5.80;99.90;;;;;;4995727;28;20253;-63
2024/03/02 04:27:22;;;;;;;6.53;2.50;;;5.80;99.90;;;;;;4995789;28;20223;-62
2024/03/02 04:29:50;;;;;;;2.97;1.80;;;5.70;99.90;;;;;;4998524;28;20281;-64
2024/03/02 04:32:19;;;;;;;4.60;2.00;;;5.60;99.90;;;;;;4999558;28;20194;-63
2024/03/02 04:34:48;;;;;;;4.70;2.10;;;5.60;99.90;;;;;;5026852;28;20790;-64
2024/03/02 04:37:16;;;;;;;3.50;2.10;;;5.50;99.90;;;;;;5026019;28;20305;-64
2024/03/02 04:39:44;;;;;;;4.40;1.97;;;5.50;99.90;;;;;;5017910;28;20584;-62
2024/03/02 04:42:14;;;;;;;6.63;1.90;;;5.50;99.90;;;;;;5014909;28;20234;-62
2024/03/02 04:44:42;;;;;;;2.20;2.10;;;5.50;99.90;;;;;;5017792;28;20217;-63
2024/03/02 04:47:10;;;;;;;5.13;2.10;;;5.40;99.90;;;;;;5022162;28;20202;-63
2024/03/02 04:49:39;;;;;;;8.80;1.70;;;5.30;99.90;;;;;;5017767;28;20226;-63
2024/03/02 04:52:07;;;;;;;2.00;1.90;;;5.20;99.90;;;;;;5022840;28;20217;-63
2024/03/02 04:55:09;;;;;;;5.70;2.07;;;5.20;99.90;;;;;;5020749;28;20220;-63
2024/03/02 04:57:25;;;;;;;2.27;2.00;;;5.20;99.90;;;;;;5015846;28;20600;-63
2024/03/02 04:59:54;;;;;;;5.50;2.13;;;5.10;99.90;;;;;;5014488;28;20242;-63
2024/03/02 05:02:22;;;;;;;6.33;2.10;;;5.10;99.90;;;;;;5022643;28;20209;-63
2024/03/02 05:04:50;;;;;;;2.30;2.10;;;5.10;99.90;;;;;;5017065;28;20679;-63
2024/03/02 05:07:18;;;;;;;4.73;2.23;;;5.10;99.90;;;;;;5017031;28;20295;-63
2024/03/02 05:09:48;;;;;;;3.07;2.17;;;5.10;99.90;;;;;;5026758;28;20240;-63
2024/03/02 05:12:55;;;;;;;5.83;2.23;;;5.10;99.90;;;;;;5009351;28;20210;-64
2024/03/02 05:15:21;;;;;;;3.03;2.07;;;5.00;99.90;;;;;;4999288;28;20206;-63
2024/03/02 05:17:49;;;;;;;3.13;2.20;;;5.00;99.90;;;;;;4995055;28;20285;-63
2024/03/02 05:20:17;;;;;;;2.80;2.10;;;5.00;99.90;;;;;;4998162;28;20198;-62
2024/03/02 05:22:47;;;;;;;6.73;2.20;;;5.00;99.90;;;;;;5003364;28;20222;-63
2024/03/02 05:25:15;;;;;;;5.20;2.00;;;5.00;99.90;;;;;;5001608;28;20241;-63
2024/03/02 05:27:43;;;;;;;3.53;2.40;;;5.00;99.90;;;;;;5015636;28;20305;-63
2024/03/02 05:30:15;;;;;;;4.73;2.20;;;5.00;99.90;;;;;;5013191;28;20222;-64
2024/03/02 05:32:45;;;;;;;3.17;2.40;;;4.90;99.90;;;;;;4999546;28;20226;-64
2024/03/02 05:35:13;;;;;;;5.67;2.77;;;4.90;99.90;;;;;;4997828;28;20191;-63
2024/03/02 05:37:41;;;;;;;4.43;2.30;;;4.80;99.90;;;;;;4994889;28;20225;-63
2024/03/02 05:40:11;;;;;;;4.33;2.37;;;4.80;99.90;;;;;;4994077;28;20219;-63
2024/03/02 05:42:41;;;;;;;7.37;2.67;;;4.80;99.90;;;;;;5003825;28;20233;-63
2024/03/02 05:45:09;;;;;;;3.47;2.23;;;4.80;99.90;;;;;;4994184;28;20214;-64
2024/03/02 05:47:38;;;;;;;5.63;2.60;;;4.80;99.90;;;;;;5003992;28;20187;-64
2024/03/02 05:50:08;;;;;;;4.33;2.60;;;4.80;99.90;;;;;;5000323;28;20330;-63
2024/03/02 05:52:36;;;;;;;10.87;2.60;;;4.80;99.90;;;;;;5002453;28;20238;-63
2024/03/02 05:55:05;;;;;;;2.77;2.13;;;4.80;99.90;;;;;;4995922;28;20224;-63
2024/03/02 05:57:47;;;;;;;6.40;2.43;;;4.80;99.90;;;;;;4990826;28;20261;-63
2024/03/02 06:00:16;;;;;;;3.13;2.00;;;4.80;99.90;;;;;;4996162;28;20211;-63
2024/03/02 06:02:46;;;;;;;4.07;2.20;;;4.80;99.90;;;;;;4989304;28;20237;-64
2024/03/02 06:05:16;;;;;;;2.00;1.90;;;4.80;99.90;;;;;;4992543;28;20291;-64
2024/03/02 06:07:45;;;;;;;1.90;1.80;;;4.80;99.90;;;;;;4994552;28;20269;-63
2024/03/02 06:10:14;;;;;;;7.67;2.00;;;4.80;99.90;;;;;;4998356;28;20229;-63
2024/03/02 06:12:42;;;;;;;5.23;2.63;;;4.80;99.90;;;;;;4992931;28;20230;-63
2024/03/02 06:15:11;;;;;;;3.20;2.10;;;4.80;99.90;;;;;;4997845;28;20222;-63
2024/03/02 06:17:39;;;;;;;5.30;1.80;;;4.80;99.90;;;;;;4992389;28;20218;-63
2024/03/02 06:20:09;;;;;;;6.47;1.83;;;4.80;99.90;;;;;;4995356;28;20218;-63
2024/03/02 06:22:38;;;;;;;4.57;1.70;;;4.80;99.90;;;;;;4996031;28;20261;-63
2024/03/02 06:25:07;;;;;;;6.73;1.90;;;4.80;99.90;;;;;;4993382;28;20219;-63
2024/03/02 06:27:36;;;;;;;4.40;2.27;;;4.80;99.90;;;;;;4992331;28;20222;-63
2024/03/02 06:30:05;;;;;;;6.80;2.00;;;4.80;99.90;;;;;;4993283;28;20253;-63
2024/03/02 06:32:33;;;;;;;5.07;2.10;;;4.80;99.90;;;;;;4994117;28;20179;-63
2024/03/02 06:35:03;;;;;;;2.00;1.80;;;4.80;99.90;;;;;;4992897;28;20213;-63
2024/03/02 06:37:32;;;;;;;4.87;2.00;;;4.80;99.90;;;;;;4987833;28;20223;-63
2024/03/02 06:40:02;;;;;;;3.53;1.87;;;4.80;99.90;;;;;;4996583;28;20574;-63
2024/03/02 06:42:33;;;;;;;3.97;2.00;;;4.80;99.90;;;;;;4997717;28;20218;-64
2024/03/02 06:45:02;;;;;;;6.40;1.80;;;4.70;99.90;;;;;;4993868;28;20310;-64
2024/03/02 06:47:30;;;;;;;6.57;2.23;;;4.80;99.90;;;;;;4992939;28;20214;-63
2024/03/02 06:49:59;;;;;;;4.80;2.17;;;4.70;99.90;;;;;;4996451;28;20191;-64
2024/03/02 06:52:27;;;;;;;2.83;1.90;;;4.70;99.90;;;;;;4993554;28;20230;-63
2024/03/02 06:54:56;;;;;;;5.60;1.97;;;4.80;99.90;;;;;;4993457;28;20233;-63
2024/03/02 06:57:27;;;;;;;6.87;2.00;;;4.80;99.90;;;;;;4992477;28;20225;-63
2024/03/02 06:59:58;;;;;;;3.53;2.10;;;4.70;99.90;;;;;;4997127;28;20831;-63
2024/03/02 07:02:29;;;;;;;3.83;1.97;;;4.80;99.90;;;;;;4996137;28;20728;-63
2024/03/02 07:04:57;;;;;;;5.13;2.10;;;4.80;99.90;;;;;;5002243;28;20237;-64
2024/03/02 07:07:25;;;;;;;7.30;2.00;;;4.90;99.90;;;;;;4998716;28;20261;-63
2024/03/02 07:09:54;;;;;;;5.17;1.83;;;4.90;99.90;;;;;;4998566;28;20781;-64
2024/03/02 07:12:22;;;;;;;8.70;2.30;;;4.90;99.90;;;;;;4989390;28;20216;-63
2024/03/02 07:14:56;;;;;;;3.93;1.93;;;4.90;99.90;;;;;;4985682;28;20241;-64
2024/03/02 07:17:25;;;;;;;7.57;2.57;;;5.00;99.90;;;;;;4992782;28;20194;-63
2024/03/02 07:19:54;;;;;;;5.50;2.30;;;5.00;99.90;;;;;;4993129;28;20191;-63
2024/03/02 07:22:22;;;;;;;6.37;2.20;;;5.10;99.90;;;;;;5000020;28;20780;-63
2024/03/02 07:24:51;;;;;;;4.87;2.27;;;5.10;99.90;;;;;;4990665;28;20225;-63
2024/03/02 07:27:20;;;;;;;6.50;2.00;;;5.20;99.90;;;;;;4994866;28;20674;-63
2024/03/02 07:29:48;;;;;;;9.13;2.57;;;5.20;99.90;;;;;;4994917;28;20354;-63
2024/03/02 07:32:18;;;;;;;8.67;2.90;;;5.30;99.90;;;;;;4988236;28;20238;-64
2024/03/02 07:34:46;;;;;;;3.07;1.97;;;5.40;99.90;;;;;;4981922;28;20237;-64
2024/03/02 07:37:14;;;;;;;3.87;2.33;;;5.60;99.90;;;;;;4991414;28;20232;-64
2024/03/02 07:39:43;;;;;;;2.40;1.80;;;6.00;99.90;;;;;;5006471;28;20226;-63
2024/03/02 07:42:11;;;;;;;8.27;1.90;;;6.40;99.90;;;;;;5008133;28;20219;-63
2024/03/02 07:44:39;;;;;;;7.70;2.20;;;6.70;99.90;;;;;;5000288;28;20199;-63
2024/03/02 07:47:09;;;;;;;8.07;2.00;;;7.10;99.90;;;;;;4989881;28;20206;-63
2024/03/02 07:49:39;;;;;;;5.50;1.90;;;7.40;99.90;;;;;;4991893;28;20224;-64
2024/03/02 07:52:07;;;;;;;6.67;2.07;;;7.70;99.90;;;;;;4991002;28;20719;-63
2024/03/02 07:54:36;;;;;;;3.90;1.83;;;7.90;99.90;;;;;;4988203;28;20222;-64
2024/03/02 07:57:05;;;;;;;51.77;17.27;;;8.10;99.90;;;;;;4987915;28;21230;-63
2024/03/02 07:59:33;;;;;;;35.17;10.97;;;8.10;99.90;;;;;;4991834;28;20290;-64
2024/03/02 08:02:01;;;;;;;16.00;6.97;;;8.20;99.90;;;;;;5004210;28;20204;-63
2024/03/02 08:04:29;;;;;;;10.10;3.70;;;8.40;99.90;;;;;;4991301;28;20760;-64
2024/03/02 08:06:59;;;;;;;10.90;2.87;;;8.50;99.90;;;;;;4997373;28;20216;-63
2024/03/02 08:09:27;;;;;;;5.60;2.53;;;8.60;99.90;;;;;;4993236;28;20241;-64
2024/03/02 08:11:56;;;;;;;6.07;2.10;;;8.60;99.90;;;;;;5002878;28;20313;-63
2024/03/02 08:14:25;;;;;;;4.30;2.20;;;8.70;99.90;;;;;;4998955;28;20657;-63
2024/03/02 08:16:53;;;;;;;5.70;2.30;;;8.90;99.90;;;;;;5005029;28;20196;-63
2024/03/02 08:19:21;;;;;;;8.20;2.10;;;9.00;99.90;;;;;;4996645;28;20227;-64
2024/03/02 08:21:49;;;;;;;4.10;2.03;;;9.10;99.90;;;;;;4996858;28;20705;-64
2024/03/02 08:24:19;;;;;;;8.93;2.17;;;9.20;99.90;;;;;;4992315;28;20229;-65
2024/03/02 08:26:48;;;;;;;7.57;2.00;;;9.40;99.90;;;;;;5002280;28;20227;-65
2024/03/02 08:29:16;;;;;;;8.07;2.03;;;9.40;99.90;;;;;;5004642;28;20220;-64
2024/03/02 08:31:44;;;;;;;7.87;2.20;;;9.20;99.90;;;;;;4999396;28;20233;-65
2024/03/02 08:34:12;;;;;;;6.73;2.20;;;8.80;99.90;;;;;;5000915;28;20241;-64
2024/03/02 08:36:41;;;;;;;9.53;2.10;;;8.70;99.90;;;;;;4996141;28;20728;-64
2024/03/02 08:39:15;;;;;;;5.50;1.93;;;8.80;99.90;;;;;;5001708;28;20318;-64
2024/03/02 08:41:45;;;;;;;5.93;1.97;;;9.00;99.90;;;;;;4993406;28;20213;-64
2024/03/02 08:44:14;;;;;;;4.87;1.77;;;9.30;99.90;;;;;;4989562;28;20223;-64
2024/03/02 08:46:42;;;;;;;4.73;2.30;;;9.10;99.90;;;;;;4998679;28;20302;-64
2024/03/02 08:49:11;;;;;;;3.47;2.00;;;8.80;99.90;;;;;;4998673;28;20229;-65
2024/03/02 08:51:39;;;;;;;4.67;2.10;;;8.60;99.90;;;;;;4996881;28;20274;-63
2024/03/02 08:54:07;;;;;;;4.03;1.97;;;8.50;99.90;;;;;;5008883;28;20283;-64
2024/03/02 08:56:36;;;;;;;7.53;2.03;;;8.60;99.90;;;;;;5005931;28;20218;-65
2024/03/02 08:59:06;;;;;;;8.33;2.37;;;8.90;99.90;;;;;;5006630;28;20702;-64
2024/03/02 09:01:34;;;;;;;4.07;2.23;;;9.20;99.90;;;;;;5004752;28;20226;-64
2024/03/02 09:04:03;;;;;;;5.80;2.20;;;9.20;99.90;;;;;;5003894;28;20314;-64
2024/03/02 09:06:31;;;;;;;6.93;2.07;;;8.90;99.90;;;;;;4993402;28;20253;-64
2024/03/02 09:08:59;;;;;;;9.83;2.10;;;8.60;99.90;;;;;;5001175;28;20728;-64
2024/03/02 09:11:28;;;;;;;7.53;2.60;;;8.60;99.90;;;;;;5016847;28;20190;-63
2024/03/02 09:13:57;;;;;;;2.97;1.90;;;9.00;99.90;;;;;;5023562;28;20212;-64
2024/03/02 09:16:30;;;;;;;6.83;1.90;;;9.40;99.90;;;;;;5021538;28;20833;-64
2024/03/02 09:18:59;;;;;;;7.87;2.30;;;9.60;99.90;;;;;;5019059;28;20584;-64
2024/03/02 09:21:29;;;;;;;9.53;2.10;;;9.90;99.90;;;;;;5017515;28;20261;-64
2024/03/02 09:23:58;;;;;;;5.20;2.20;;;10.00;99.90;;;;;;5016426;28;20284;-64
2024/03/02 09:26:27;;;;;;;7.87;2.13;;;10.10;99.90;;;;;;5017084;28;20194;-64
2024/03/02 09:28:55;;;;;;;3.03;2.00;;;10.20;99.90;;;;;;5014321;28;20297;-63
2024/03/02 09:31:23;;;;;;;6.93;2.23;;;10.10;99.90;;;;;;5014039;28;20708;-64
2024/03/02 09:33:53;;;;;;;6.30;2.13;;;10.10;99.90;;;;;;5002203;28;20633;-64
2024/03/02 09:36:23;;;;;;;5.53;2.10;;;10.20;99.90;;;;;;5004825;28;20224;-63
2024/03/02 09:38:51;;;;;;;5.60;1.87;;;10.20;99.90;;;;;;5016620;28;20317;-64
2024/03/02 09:41:20;;;;;;;9.20;2.23;;;10.40;99.90;;;;;;4995365;28;20197;-64
2024/03/02 09:43:48;;;;;;;9.57;2.27;;;10.30;99.90;;;;;;4996016;28;20237;-64
2024/03/02 09:46:16;;;;;;;7.93;1.97;;;10.30;99.90;;;;;;4993569;28;20219;-64
2024/03/02 09:48:45;;;;;;;5.77;1.80;;;10.20;99.90;;;;;;4998692;28;20712;-64
2024/03/02 09:51:19;;;;;;;9.77;2.03;;;10.20;99.90;;;;;;4993417;28;20230;-64
2024/03/02 09:53:48;;;;;;;4.93;1.90;;;10.30;99.90;;;;;;4993574;28;20230;-64
2024/03/02 09:56:18;;;;;;;7.00;2.17;;;10.40;99.90;;;;;;4996955;28;20222;-62
2024/03/02 09:58:46;;;;;;;5.20;2.17;;;10.20;99.90;;;;;;5017352;28;20214;-64
2024/03/02 10:01:14;;;;;;;8.10;2.00;;;10.50;99.90;;;;;;5021815;28;20222;-64
2024/03/02 10:03:49;;;;;;;10.13;2.30;;;10.60;99.90;;;;;;5027584;28;20251;-64
2024/03/02 10:06:24;;;;;;;7.80;2.40;;;10.70;99.90;;;;;;5016353;28;20644;-63
2024/03/02 10:08:53;;;;;;;8.30;2.03;;;10.60;99.90;;;;;;5008555;28;20664;-63
2024/03/02 10:11:29;;;;;;;4.50;2.20;;;10.50;99.90;;;;;;5029373;28;20289;-61
2024/03/02 10:14:08;;;;;;;7.73;2.17;;;10.60;99.90;;;;;;5015637;28;20280;-63
2024/03/02 10:16:37;;;;;;;5.53;1.90;;;10.50;99.90;;;;;;4995699;28;20230;-63
2024/03/02 10:19:19;;;;;;;11.13;2.00;;;10.50;99.90;;;;;;4996156;28;20218;-62
2024/03/02 10:21:50;;;;;;;4.33;1.97;;;10.70;99.90;;;;;;4992143;28;20222;-62
2024/03/02 10:24:19;;;;;;;5.80;1.90;;;10.60;99.90;;;;;;5001169;28;20238;-63
2024/03/02 10:26:47;;;;;;;8.70;2.03;;;10.50;99.90;;;;;;5004442;28;20267;-63
2024/03/02 10:29:15;;;;;;;9.00;1.87;;;10.80;99.90;;;;;;4995911;28;20190;-64
2024/03/02 10:31:45;;;;;;;10.80;2.10;;;11.00;99.90;;;;;;4995550;28;20223;-63
2024/03/02 10:34:15;;;;;;;6.20;2.00;;;11.10;99.90;;;;;;5001027;28;20306;-64
2024/03/02 10:36:45;;;;;;;4.30;1.80;;;11.30;99.90;;;;;;4995885;28;20563;-64
2024/03/02 10:39:15;;;;;;;5.83;1.90;;;11.60;99.90;;;;;;4995569;28;20284;-64
2024/03/02 10:41:45;;;;;;;3.57;2.00;;;11.60;99.90;;;;;;4997154;28;20329;-63
2024/03/02 10:44:14;;;;;;;5.20;1.83;;;11.50;99.90;;;;;;5001902;28;20225;-64
2024/03/02 10:46:44;;;;;;;5.20;1.80;;;11.70;99.90;;;;;;5003359;28;20214;-63
2024/03/02 10:49:12;;;;;;;8.10;2.20;;;11.60;99.90;;;;;;4999840;28;20329;-63
2024/03/02 10:51:40;;;;;;;4.63;1.87;;;11.80;99.90;;;;;;4989017;28;20224;-64
2024/03/02 10:54:09;;;;;;;5.13;1.90;;;11.60;99.90;;;;;;4998532;28;20322;-64
2024/03/02 10:56:41;;;;;;;6.33;2.30;;;11.60;99.90;;;;;;5001166;28;20349;-63
2024/03/02 10:59:18;;;;;;;9.60;2.10;;;11.60;99.90;;;;;;5003988;28;20202;-64
2024/03/02 11:01:49;;;;;;;4.63;1.77;;;11.70;99.90;;;;;;4997492;28;20248;-63
2024/03/02 11:04:19;;;;;;;4.47;1.97;;;11.90;99.90;;;;;;4991750;28;20238;-63
2024/03/02 11:06:51;;;;;;;5.83;2.20;;;11.80;99.90;;;;;;4992407;28;20223;-63
2024/03/02 11:09:22;;;;;;;4.63;2.00;;;11.70;1.00;;;;;;4998363;28;20246;-63
2024/03/02 11:12:01;;;;;;;5.13;1.80;;;11.70;1.00;;;;;;4993893;28;20219;-64
2024/03/02 11:14:34;;;;;;;6.33;1.93;;;12.10;1.00;;;;;;4999415;28;20616;-64
2024/03/02 11:17:05;;;;;;;4.53;1.80;;;12.50;1.00;;;;;;5002892;28;20199;-64
2024/03/02 11:19:34;;;;;;;7.40;1.77;;;12.30;1.00;;;;;;4994648;28;20226;-65
2024/03/02 11:22:04;;;;;;;3.70;1.60;;;12.50;99.90;;;;;;4998662;28;20230;-64
2024/03/02 11:24:36;;;;;;;7.53;2.03;;;12.60;99.90;;;;;;4994856;28;20223;-64
2024/03/02 11:27:11;;;;;;;3.13;1.90;;;12.40;99.90;;;;;;5000732;28;20253;-64
2024/03/02 11:29:46;;;;;;;4.70;1.70;;;12.30;99.90;;;;;;5018480;28;20565;-65
2024/03/02 11:32:19;;;;;;;7.83;1.70;;;12.00;99.90;;;;;;5017004;28;20191;-64
2024/03/02 11:34:49;;;;;;;4.70;1.90;;;11.70;99.90;;;;;;5000573;28;20214;-63
2024/03/02 11:37:18;;;;;;;9.83;1.90;;;11.60;99.90;;;;;;5015090;28;20225;-63
2024/03/02 11:39:48;;;;;;;9.03;2.40;;;11.60;99.90;;;;;;5020748;28;20267;-65
2024/03/02 11:42:18;;;;;;;6.07;1.77;;;11.60;99.90;;;;;;5026401;28;20224;-64
2024/03/02 11:44:48;;;;;;;7.03;1.70;;;11.60;99.90;;;;;;5015516;28;20297;-64
2024/03/02 11:47:17;;;;;;;5.63;1.90;;;11.40;99.90;;;;;;5018973;28;20585;-64
2024/03/02 11:49:50;;;;;;;6.03;1.90;;;11.30;99.90;;;;;;5012774;28;20218;-64
2024/03/02 11:52:19;;;;;;;7.10;1.77;;;11.30;99.90;;;;;;5015750;28;20565;-64
2024/03/02 11:54:48;;;;;;;7.33;2.10;;;11.20;99.90;;;;;;5014180;28;20222;-65
2024/03/02 11:57:20;;;;;;;9.00;2.73;;;11.10;99.90;;;;;;5012213;28;20226;-63
2024/03/02 11:59:49;;;;;;;3.57;2.23;;;10.90;99.90;;;;;;5006742;28;20214;-64
2024/03/02 12:02:18;;;;;;;7.13;2.10;;;10.80;99.90;;;;;;5019502;28;20194;-64
2024/03/02 12:04:48;;;;;;;8.43;2.70;;;10.70;99.90;;;;;;5015612;28;20226;-64
2024/03/02 12:07:21;;;;;;;6.70;2.37;;;10.70;99.90;;;;;;5000401;28;20284;-64
2024/03/02 12:09:50;;;;;;;7.33;2.47;;;10.70;99.90;;;;;;5001315;28;20224;-63
2024/03/02 12:12:22;;;;;;;7.03;2.70;;;10.70;99.90;;;;;;5000537;28;20226;-64
2024/03/02 12:14:53;;;;;;;7.23;2.70;;;10.70;99.90;;;;;;4996087;28;20715;-64
2024/03/02 12:17:21;;;;;;;4.13;2.10;;;10.60;99.90;;;;;;4991285;28;20195;-62
2024/03/02 12:19:49;;;;;;;7.07;2.27;;;10.60;99.90;;;;;;4985202;28;20200;-65
2024/03/02 12:22:18;;;;;;;8.17;2.53;;;10.60;99.90;;;;;;4990441;28;20234;-65
2024/03/02 12:24:46;;;;;;;9.67;2.30;;;10.50;99.90;;;;;;4999097;28;20229;-64
2024/03/02 12:27:18;;;;;;;9.27;1.93;;;10.30;99.90;;;;;;4988018;28;20228;-65
2024/03/02 12:29:48;;;;;;;8.80;2.10;;;10.20;99.90;;;;;;4993028;28;20321;-64
2024/03/02 12:32:17;;;;;;;6.67;2.23;;;10.10;99.90;;;;;;4994596;28;20542;-64
2024/03/02 12:34:48;;;;;;;7.03;2.03;;;10.00;99.90;;;;;;4996706;28;20217;-64
2024/03/02 12:37:16;;;;;;;4.50;2.10;;;10.00;99.90;;;;;;5003549;28;20225;-64
2024/03/02 12:39:47;;;;;;;5.10;2.13;;;9.90;96.70;;;;;;5005236;28;20226;-64
2024/03/02 12:42:15;;;;;;;7.23;1.90;;;9.90;99.90;;;;;;4991710;28;20640;-64
2024/03/02 12:44:43;;;;;;;3.90;1.90;;;9.90;99.90;;;;;;4992453;28;20245;-65
2024/03/02 12:47:13;;;;;;;6.53;2.30;;;9.90;99.90;;;;;;5009637;28;20218;-64
2024/03/02 12:49:42;;;;;;;5.00;2.10;;;9.90;99.90;;;;;;4990853;28;20227;-64
2024/03/02 12:52:12;;;;;;;5.00;1.87;;;10.00;99.90;;;;;;4989661;28;20219;-64
2024/03/02 12:54:41;;;;;;;4.20;1.60;;;10.00;99.90;;;;;;4996587;28;20974;-64
2024/03/02 12:57:09;;;;;;;6.33;2.00;;;10.00;99.90;;;;;;4988852;28;20722;-64
2024/03/02 12:59:37;;;;;;;10.40;2.40;;;10.00;99.90;;;;;;5000323;28;20206;-64
2024/03/02 13:02:06;;;;;;;9.77;2.87;;;10.00;99.90;;;;;;4999593;28;20282;-64
2024/03/02 13:04:35;;;;;;;3.93;2.00;;;10.00;99.90;;;;;;4996316;28;20309;-64